sensor_id;sensor_type;location;lat;lon;timestamp;P1;P2;P0
43280;PMS5003;62175;49.416;8.690;2023-05-10T00:00:38;1;1;
43280;PMS5003;62175;49.416;8.690;2023-05-10T00:03:06;1;1;
43280;PMS5003;62175;49.416;8.690;2023-05-10T00:05:33;2;1;
43280;PMS5003;62175;49.416;8.690;2023-05-10T00:08:00;2;2;
43280;PMS5003;62175;49.416;8.690;2023-05-10T00:10:27;1;1;
43280;PMS5003;62175;49.416;8.690;2023-05-10T00:12:54;2;2;
43280;PMS5003;62175;49.416;8.690;2023-05-10T00:15:21;2;2;
43280;PMS5003;62175;49.416;8.690;2023-05-10T00:17:47;1;1;
43280;PMS5003;62175;49.416;8.690;2023-05-10T00:20:15;1;0;
43280;PMS5003;62175;49.416;8.690;2023-05-10T00:22:41;1;1;
43280;PMS5003;62175;49.416;8.690;2023-05-10T00:25:08;0;0;
43280;PMS5003;62175;49.416;8.690;2023-05-10T00:27:35;1;1;
43280;PMS5003;62175;49.416;8.690;2023-05-10T00:30:03;1;1;
43280;PMS5003;62175;49.416;8.690;2023-05-10T00:32:30;1;1;
43280;PMS5003;62175;49.416;8.690;2023-05-10T00:34:58;1;1;
43280;PMS5003;62175;49.416;8.690;2023-05-10T00:37:25;0;0;
43280;PMS5003;62175;49.416;8.690;2023-05-10T00:39:52;1;1;
43280;PMS5003;62175;49.416;8.690;2023-05-10T00:42:19;0;0;
43280;PMS5003;62175;49.416;8.690;2023-05-10T00:44:49;1;1;
43280;PMS5003;62175;49.416;8.690;2023-05-10T00:47:18;1;1;
43280;PMS5003;62175;49.416;8.690;2023-05-10T00:49:44;0;0;
43280;PMS5003;62175;49.416;8.690;2023-05-10T00:52:12;0;0;
43280;PMS5003;62175;49.416;8.690;2023-05-10T00:54:39;1;0;
43280;PMS5003;62175;49.416;8.690;2023-05-10T00:57:06;1;1;
43280;PMS5003;62175;49.416;8.690;2023-05-10T00:59:33;0;0;
43280;PMS5003;62175;49.416;8.690;2023-05-10T01:02:00;0;0;
43280;PMS5003;62175;49.416;8.690;2023-05-10T01:04:28;0;0;
43280;PMS5003;62175;49.416;8.690;2023-05-10T01:06:56;1;1;
43280;PMS5003;62175;49.416;8.690;2023-05-10T01:09:23;0;0;
43280;PMS5003;62175;49.416;8.690;2023-05-10T01:11:51;0;0;
43280;PMS5003;62175;49.416;8.690;2023-05-10T01:14:19;0;0;
43280;PMS5003;62175;49.416;8.690;2023-05-10T01:16:47;0;0;
43280;PMS5003;62175;49.416;8.690;2023-05-10T01:19:17;0;0;
43280;PMS5003;62175;49.416;8.690;2023-05-10T01:21:49;0;0;
43280;PMS5003;62175;49.416;8.690;2023-05-10T01:24:31;0;0;
43280;PMS5003;62175;49.416;8.690;2023-05-10T01:27:26;0;0;
43280;PMS5003;62175;49.416;8.690;2023-05-10T01:30:20;0;0;
43280;PMS5003;62175;49.416;8.690;2023-05-10T01:33:05;1;0;
43280;PMS5003;62175;49.416;8.690;2023-05-10T01:35:43;1;1;
43280;PMS5003;62175;49.416;8.690;2023-05-10T01:38:17;1;1;
43280;PMS5003;62175;49.416;8.690;2023-05-10T01:40:52;1;1;
43280;PMS5003;62175;49.416;8.690;2023-05-10T01:43:29;0;0;
43280;PMS5003;62175;49.416;8.690;2023-05-10T01:46:02;1;0;
43280;PMS5003;62175;49.416;8.690;2023-05-10T01:48:34;1;1;
43280;PMS5003;62175;49.416;8.690;2023-05-10T01:51:01;0;0;
43280;PMS5003;62175;49.416;8.690;2023-05-10T01:53:29;1;0;
43280;PMS5003;62175;49.416;8.690;2023-05-10T01:55:58;0;0;
43280;PMS5003;62175;49.416;8.690;2023-05-10T01:58:30;2;1;
43280;PMS5003;62175;49.416;8.690;2023-05-10T02:01:01;1;1;
43280;PMS5003;62175;49.416;8.690;2023-05-10T02:03:30;1;1;
43280;PMS5003;62175;49.416;8.690;2023-05-10T02:06:02;1;1;
43280;PMS5003;62175;49.416;8.690;2023-05-10T02:08:29;2;2;
43280;PMS5003;62175;49.416;8.690;2023-05-10T02:10:58;1;1;
43280;PMS5003;62175;49.416;8.690;2023-05-10T02:13:27;1;1;
43280;PMS5003;62175;49.416;8.690;2023-05-10T02:15:56;2;2;
43280;PMS5003;62175;49.416;8.690;2023-05-10T02:18:25;1;1;
43280;PMS5003;62175;49.416;8.690;2023-05-10T02:20:54;1;1;
43280;PMS5003;62175;49.416;8.690;2023-05-10T02:23:23;1;1;
43280;PMS5003;62175;49.416;8.690;2023-05-10T02:25:50;1;1;
43280;PMS5003;62175;49.416;8.690;2023-05-10T02:28:21;1;1;
43280;PMS5003;62175;49.416;8.690;2023-05-10T02:30:51;3;2;
43280;PMS5003;62175;49.416;8.690;2023-05-10T02:33:19;1;1;
43280;PMS5003;62175;49.416;8.690;2023-05-10T02:35:49;1;1;
43280;PMS5003;62175;49.416;8.690;2023-05-10T02:38:17;2;2;
43280;PMS5003;62175;49.416;8.690;2023-05-10T02:40:46;1;1;
43280;PMS5003;62175;49.416;8.690;2023-05-10T02:43:15;2;2;
43280;PMS5003;62175;49.416;8.690;2023-05-10T02:45:44;1;1;
43280;PMS5003;62175;49.416;8.690;2023-05-10T02:48:14;2;2;
43280;PMS5003;62175;49.416;8.690;2023-05-10T02:50:42;1;1;
43280;PMS5003;62175;49.416;8.690;2023-05-10T02:53:11;1;1;
43280;PMS5003;62175;49.416;8.690;2023-05-10T02:55:45;1;1;
43280;PMS5003;62175;49.416;8.690;2023-05-10T02:58:16;1;1;
43280;PMS5003;62175;49.416;8.690;2023-05-10T03:00:43;2;2;
43280;PMS5003;62175;49.416;8.690;2023-05-10T03:03:09;2;1;
43280;PMS5003;62175;49.416;8.690;2023-05-10T03:05:36;0;0;
43280;PMS5003;62175;49.416;8.690;2023-05-10T03:08:04;1;1;
43280;PMS5003;62175;49.416;8.690;2023-05-10T03:10:32;2;2;
43280;PMS5003;62175;49.416;8.690;2023-05-10T03:13:06;0;0;
43280;PMS5003;62175;49.416;8.690;2023-05-10T03:15:42;1;1;
43280;PMS5003;62175;49.416;8.690;2023-05-10T03:18:18;2;2;
43280;PMS5003;62175;49.416;8.690;2023-05-10T03:20:49;2;2;
43280;PMS5003;62175;49.416;8.690;2023-05-10T03:23:21;0;0;
43280;PMS5003;62175;49.416;8.690;2023-05-10T03:25:53;1;1;
43280;PMS5003;62175;49.416;8.690;2023-05-10T03:28:20;3;2;
43280;PMS5003;62175;49.416;8.690;2023-05-10T03:30:51;1;1;
43280;PMS5003;62175;49.416;8.690;2023-05-10T03:33:19;1;1;
43280;PMS5003;62175;49.416;8.690;2023-05-10T03:35:47;3;3;
43280;PMS5003;62175;49.416;8.690;2023-05-10T03:38:14;3;2;
43280;PMS5003;62175;49.416;8.690;2023-05-10T03:40:41;2;2;
43280;PMS5003;62175;49.416;8.690;2023-05-10T03:43:08;4;4;
43280;PMS5003;62175;49.416;8.690;2023-05-10T03:45:35;3;3;
43280;PMS5003;62175;49.416;8.690;2023-05-10T03:48:02;3;3;
43280;PMS5003;62175;49.416;8.690;2023-05-10T03:50:29;3;3;
43280;PMS5003;62175;49.416;8.690;2023-05-10T03:52:56;3;3;
43280;PMS5003;62175;49.416;8.690;2023-05-10T03:55:23;3;3;
43280;PMS5003;62175;49.416;8.690;2023-05-10T03:57:50;4;3;
43280;PMS5003;62175;49.416;8.690;2023-05-10T04:00:18;2;2;
43280;PMS5003;62175;49.416;8.690;2023-05-10T04:02:45;4;4;
43280;PMS5003;62175;49.416;8.690;2023-05-10T04:05:12;4;4;
43280;PMS5003;62175;49.416;8.690;2023-05-10T04:07:39;3;3;
43280;PMS5003;62175;49.416;8.690;2023-05-10T04:10:06;3;3;
43280;PMS5003;62175;49.416;8.690;2023-05-10T04:12:34;2;2;
43280;PMS5003;62175;49.416;8.690;2023-05-10T04:15:01;3;3;
43280;PMS5003;62175;49.416;8.690;2023-05-10T04:17:28;4;4;
43280;PMS5003;62175;49.416;8.690;2023-05-10T04:19:55;5;4;
43280;PMS5003;62175;49.416;8.690;2023-05-10T04:22:22;2;2;
43280;PMS5003;62175;49.416;8.690;2023-05-10T04:24:49;4;4;
43280;PMS5003;62175;49.416;8.690;2023-05-10T04:27:16;4;4;
43280;PMS5003;62175;49.416;8.690;2023-05-10T04:29:43;5;4;
43280;PMS5003;62175;49.416;8.690;2023-05-10T04:32:10;5;5;
43280;PMS5003;62175;49.416;8.690;2023-05-10T04:34:37;4;4;
43280;PMS5003;62175;49.416;8.690;2023-05-10T04:37:04;2;2;
43280;PMS5003;62175;49.416;8.690;2023-05-10T04:39:31;4;4;
43280;PMS5003;62175;49.416;8.690;2023-05-10T04:41:58;1;1;
43280;PMS5003;62175;49.416;8.690;2023-05-10T04:44:25;5;4;
43280;PMS5003;62175;49.416;8.690;2023-05-10T04:46:55;4;4;
43280;PMS5003;62175;49.416;8.690;2023-05-10T04:49:23;5;4;
43280;PMS5003;62175;49.416;8.690;2023-05-10T04:51:54;5;5;
43280;PMS5003;62175;49.416;8.690;2023-05-10T04:54:21;6;5;
43280;PMS5003;62175;49.416;8.690;2023-05-10T04:56:48;4;4;
43280;PMS5003;62175;49.416;8.690;2023-05-10T04:59:15;5;5;
43280;PMS5003;62175;49.416;8.690;2023-05-10T05:01:42;4;4;
43280;PMS5003;62175;49.416;8.690;2023-05-10T05:04:09;4;4;
43280;PMS5003;62175;49.416;8.690;2023-05-10T05:06:36;4;4;
43280;PMS5003;62175;49.416;8.690;2023-05-10T05:09:03;5;5;
43280;PMS5003;62175;49.416;8.690;2023-05-10T05:11:30;5;5;
43280;PMS5003;62175;49.416;8.690;2023-05-10T05:13:56;6;5;
43280;PMS5003;62175;49.416;8.690;2023-05-10T05:16:24;6;5;
43280;PMS5003;62175;49.416;8.690;2023-05-10T05:18:50;4;4;
43280;PMS5003;62175;49.416;8.690;2023-05-10T05:21:18;5;4;
43280;PMS5003;62175;49.416;8.690;2023-05-10T05:23:45;4;4;
43280;PMS5003;62175;49.416;8.690;2023-05-10T05:26:13;5;5;
43280;PMS5003;62175;49.416;8.690;2023-05-10T05:28:39;5;5;
43280;PMS5003;62175;49.416;8.690;2023-05-10T05:31:07;5;5;
43280;PMS5003;62175;49.416;8.690;2023-05-10T05:33:34;5;4;
43280;PMS5003;62175;49.416;8.690;2023-05-10T05:36:03;5;4;
43280;PMS5003;62175;49.416;8.690;2023-05-10T05:38:31;4;4;
43280;PMS5003;62175;49.416;8.690;2023-05-10T05:40:59;5;5;
43280;PMS5003;62175;49.416;8.690;2023-05-10T05:43:27;8;6;
43280;PMS5003;62175;49.416;8.690;2023-05-10T05:45:54;4;4;
43280;PMS5003;62175;49.416;8.690;2023-05-10T05:48:21;4;4;
43280;PMS5003;62175;49.416;8.690;2023-05-10T05:50:48;7;7;
43280;PMS5003;62175;49.416;8.690;2023-05-10T05:53:15;4;4;
43280;PMS5003;62175;49.416;8.690;2023-05-10T05:55:50;7;5;
43280;PMS5003;62175;49.416;8.690;2023-05-10T05:58:18;6;6;
43280;PMS5003;62175;49.416;8.690;2023-05-10T06:00:45;5;5;
43280;PMS5003;62175;49.416;8.690;2023-05-10T06:03:12;5;4;
43280;PMS5003;62175;49.416;8.690;2023-05-10T06:05:39;5;5;
43280;PMS5003;62175;49.416;8.690;2023-05-10T06:08:06;7;6;
43280;PMS5003;62175;49.416;8.690;2023-05-10T06:10:33;7;5;
43280;PMS5003;62175;49.416;8.690;2023-05-10T06:13:00;5;4;
43280;PMS5003;62175;49.416;8.690;2023-05-10T06:15:27;5;5;
43280;PMS5003;62175;49.416;8.690;2023-05-10T06:17:54;6;6;
43280;PMS5003;62175;49.416;8.690;2023-05-10T06:20:21;5;5;
43280;PMS5003;62175;49.416;8.690;2023-05-10T06:22:48;6;6;
43280;PMS5003;62175;49.416;8.690;2023-05-10T06:25:15;4;4;
43280;PMS5003;62175;49.416;8.690;2023-05-10T06:27:42;6;6;
43280;PMS5003;62175;49.416;8.690;2023-05-10T06:30:10;5;5;
43280;PMS5003;62175;49.416;8.690;2023-05-10T06:32:37;7;7;
43280;PMS5003;62175;49.416;8.690;2023-05-10T06:35:05;4;4;
43280;PMS5003;62175;49.416;8.690;2023-05-10T06:37:32;7;6;
43280;PMS5003;62175;49.416;8.690;2023-05-10T06:39:59;7;6;
43280;PMS5003;62175;49.416;8.690;2023-05-10T06:42:26;8;8;
43280;PMS5003;62175;49.416;8.690;2023-05-10T06:44:53;7;7;
43280;PMS5003;62175;49.416;8.690;2023-05-10T06:47:20;8;6;
43280;PMS5003;62175;49.416;8.690;2023-05-10T06:49:47;7;7;
43280;PMS5003;62175;49.416;8.690;2023-05-10T06:52:14;6;6;
43280;PMS5003;62175;49.416;8.690;2023-05-10T06:54:41;8;7;
43280;PMS5003;62175;49.416;8.690;2023-05-10T06:57:08;5;5;
43280;PMS5003;62175;49.416;8.690;2023-05-10T06:59:35;6;6;
43280;PMS5003;62175;49.416;8.690;2023-05-10T07:02:02;6;6;
43280;PMS5003;62175;49.416;8.690;2023-05-10T07:04:29;5;5;
43280;PMS5003;62175;49.416;8.690;2023-05-10T07:06:56;7;7;
43280;PMS5003;62175;49.416;8.690;2023-05-10T07:09:23;8;7;
43280;PMS5003;62175;49.416;8.690;2023-05-10T07:11:50;5;5;
43280;PMS5003;62175;49.416;8.690;2023-05-10T07:14:17;5;5;
43280;PMS5003;62175;49.416;8.690;2023-05-10T07:16:45;7;7;
43280;PMS5003;62175;49.416;8.690;2023-05-10T07:19:12;7;7;
43280;PMS5003;62175;49.416;8.690;2023-05-10T07:21:40;6;6;
43280;PMS5003;62175;49.416;8.690;2023-05-10T07:24:08;6;6;
43280;PMS5003;62175;49.416;8.690;2023-05-10T07:26:36;5;5;
43280;PMS5003;62175;49.416;8.690;2023-05-10T07:29:04;7;7;
43280;PMS5003;62175;49.416;8.690;2023-05-10T07:31:30;6;6;
43280;PMS5003;62175;49.416;8.690;2023-05-10T07:33:57;6;5;
43280;PMS5003;62175;49.416;8.690;2023-05-10T07:36:24;5;5;
43280;PMS5003;62175;49.416;8.690;2023-05-10T07:38:51;6;5;
43280;PMS5003;62175;49.416;8.690;2023-05-10T07:41:19;7;6;
43280;PMS5003;62175;49.416;8.690;2023-05-10T07:43:46;7;7;
43280;PMS5003;62175;49.416;8.690;2023-05-10T07:46:12;5;5;
43280;PMS5003;62175;49.416;8.690;2023-05-10T07:48:39;6;6;
43280;PMS5003;62175;49.416;8.690;2023-05-10T07:51:06;5;5;
43280;PMS5003;62175;49.416;8.690;2023-05-10T07:53:33;7;7;
43280;PMS5003;62175;49.416;8.690;2023-05-10T07:56:19;6;6;
43280;PMS5003;62175;49.416;8.690;2023-05-10T07:58:47;6;5;
43280;PMS5003;62175;49.416;8.690;2023-05-10T08:01:14;5;5;
43280;PMS5003;62175;49.416;8.690;2023-05-10T08:03:41;5;5;
43280;PMS5003;62175;49.416;8.690;2023-05-10T08:06:08;6;6;
43280;PMS5003;62175;49.416;8.690;2023-05-10T08:08:35;5;5;
43280;PMS5003;62175;49.416;8.690;2023-05-10T08:11:03;5;4;
43280;PMS5003;62175;49.416;8.690;2023-05-10T08:13:30;5;4;
43280;PMS5003;62175;49.416;8.690;2023-05-10T08:15:57;5;4;
43280;PMS5003;62175;49.416;8.690;2023-05-10T08:18:25;3;3;
43280;PMS5003;62175;49.416;8.690;2023-05-10T08:20:53;4;4;
43280;PMS5003;62175;49.416;8.690;2023-05-10T08:23:21;3;3;
43280;PMS5003;62175;49.416;8.690;2023-05-10T08:25:48;3;3;
43280;PMS5003;62175;49.416;8.690;2023-05-10T08:28:16;3;3;
43280;PMS5003;62175;49.416;8.690;2023-05-10T08:30:44;4;4;
43280;PMS5003;62175;49.416;8.690;2023-05-10T08:33:11;4;3;
43280;PMS5003;62175;49.416;8.690;2023-05-10T08:35:40;3;3;
43280;PMS5003;62175;49.416;8.690;2023-05-10T08:38:08;3;2;
43280;PMS5003;62175;49.416;8.690;2023-05-10T08:40:41;5;5;
43280;PMS5003;62175;49.416;8.690;2023-05-10T08:43:27;6;4;
43280;PMS5003;62175;49.416;8.690;2023-05-10T08:45:58;3;3;
43280;PMS5003;62175;49.416;8.690;2023-05-10T08:48:29;2;2;
43280;PMS5003;62175;49.416;8.690;2023-05-10T08:51:28;4;4;
43280;PMS5003;62175;49.416;8.690;2023-05-10T08:54:11;3;3;
43280;PMS5003;62175;49.416;8.690;2023-05-10T08:56:53;3;3;
43280;PMS5003;62175;49.416;8.690;2023-05-10T08:59:22;3;3;
43280;PMS5003;62175;49.416;8.690;2023-05-10T09:01:53;4;4;
43280;PMS5003;62175;49.416;8.690;2023-05-10T09:04:30;6;4;
43280;PMS5003;62175;49.416;8.690;2023-05-10T09:07:05;4;4;
43280;PMS5003;62175;49.416;8.690;2023-05-10T09:09:36;4;3;
43280;PMS5003;62175;49.416;8.690;2023-05-10T09:12:06;3;3;
43280;PMS5003;62175;49.416;8.690;2023-05-10T09:14:41;4;3;
43280;PMS5003;62175;49.416;8.690;2023-05-10T09:17:20;4;3;
43280;PMS5003;62175;49.416;8.690;2023-05-10T09:19:57;4;4;
43280;PMS5003;62175;49.416;8.690;2023-05-10T09:22:39;3;3;
43280;PMS5003;62175;49.416;8.690;2023-05-10T09:25:28;3;3;
43280;PMS5003;62175;49.416;8.690;2023-05-10T09:27:56;2;2;
43280;PMS5003;62175;49.416;8.690;2023-05-10T09:30:26;2;2;
43280;PMS5003;62175;49.416;8.690;2023-05-10T09:32:59;2;2;
43280;PMS5003;62175;49.416;8.690;2023-05-10T09:36:10;3;2;
43280;PMS5003;62175;49.416;8.690;2023-05-10T09:39:18;2;2;
43280;PMS5003;62175;49.416;8.690;2023-05-10T09:41:56;2;2;
43280;PMS5003;62175;49.416;8.690;2023-05-10T09:44:26;2;2;
43280;PMS5003;62175;49.416;8.690;2023-05-10T09:46:53;2;1;
43280;PMS5003;62175;49.416;8.690;2023-05-10T09:49:22;2;2;
43280;PMS5003;62175;49.416;8.690;2023-05-10T09:51:59;2;2;
43280;PMS5003;62175;49.416;8.690;2023-05-10T09:54:29;1;1;
43280;PMS5003;62175;49.416;8.690;2023-05-10T09:56:57;4;4;
43280;PMS5003;62175;49.416;8.690;2023-05-10T09:59:25;2;2;
43280;PMS5003;62175;49.416;8.690;2023-05-10T10:01:55;2;2;
43280;PMS5003;62175;49.416;8.690;2023-05-10T10:04:24;1;1;
43280;PMS5003;62175;49.416;8.690;2023-05-10T10:07:01;3;3;
43280;PMS5003;62175;49.416;8.690;2023-05-10T10:09:30;3;3;
43280;PMS5003;62175;49.416;8.690;2023-05-10T10:11:59;2;2;
43280;PMS5003;62175;49.416;8.690;2023-05-10T10:14:27;2;2;
43280;PMS5003;62175;49.416;8.690;2023-05-10T10:16:55;2;2;
43280;PMS5003;62175;49.416;8.690;2023-05-10T10:19:23;2;2;
43280;PMS5003;62175;49.416;8.690;2023-05-10T10:21:52;1;1;
43280;PMS5003;62175;49.416;8.690;2023-05-10T10:24:20;2;2;
43280;PMS5003;62175;49.416;8.690;2023-05-10T10:26:50;2;2;
43280;PMS5003;62175;49.416;8.690;2023-05-10T10:29:23;1;1;
43280;PMS5003;62175;49.416;8.690;2023-05-10T10:32:01;2;2;
43280;PMS5003;62175;49.416;8.690;2023-05-10T10:34:36;2;2;
43280;PMS5003;62175;49.416;8.690;2023-05-10T10:37:07;1;1;
43280;PMS5003;62175;49.416;8.690;2023-05-10T10:39:34;2;2;
43280;PMS5003;62175;49.416;8.690;2023-05-10T10:42:02;2;2;
43280;PMS5003;62175;49.416;8.690;2023-05-10T10:44:35;2;2;
43280;PMS5003;62175;49.416;8.690;2023-05-10T10:47:04;2;2;
43280;PMS5003;62175;49.416;8.690;2023-05-10T10:49:37;1;1;
43280;PMS5003;62175;49.416;8.690;2023-05-10T10:52:20;1;1;
43280;PMS5003;62175;49.416;8.690;2023-05-10T10:54:50;2;2;
43280;PMS5003;62175;49.416;8.690;2023-05-10T10:57:19;2;2;
43280;PMS5003;62175;49.416;8.690;2023-05-10T10:59:47;2;2;
43280;PMS5003;62175;49.416;8.690;2023-05-10T11:02:32;2;2;
43280;PMS5003;62175;49.416;8.690;2023-05-10T11:05:00;2;1;
43280;PMS5003;62175;49.416;8.690;2023-05-10T11:07:53;4;3;
43280;PMS5003;62175;49.416;8.690;2023-05-10T11:10:21;1;1;
43280;PMS5003;62175;49.416;8.690;2023-05-10T11:12:52;3;3;
43280;PMS5003;62175;49.416;8.690;2023-05-10T11:15:20;1;1;
43280;PMS5003;62175;49.416;8.690;2023-05-10T11:17:56;3;3;
43280;PMS5003;62175;49.416;8.690;2023-05-10T11:20:23;1;1;
43280;PMS5003;62175;49.416;8.690;2023-05-10T11:22:53;2;2;
43280;PMS5003;62175;49.416;8.690;2023-05-10T11:25:26;3;3;
43280;PMS5003;62175;49.416;8.690;2023-05-10T11:27:53;2;2;
43280;PMS5003;62175;49.416;8.690;2023-05-10T11:30:20;3;3;
43280;PMS5003;62175;49.416;8.690;2023-05-10T11:32:47;2;2;
43280;PMS5003;62175;49.416;8.690;2023-05-10T11:35:14;3;3;
43280;PMS5003;62175;49.416;8.690;2023-05-10T11:37:41;4;3;
43280;PMS5003;62175;49.416;8.690;2023-05-10T11:50:49;2;2;
43280;PMS5003;62175;49.416;8.690;2023-05-10T11:53:16;1;1;
43280;PMS5003;62175;49.416;8.690;2023-05-10T11:55:46;2;2;
43280;PMS5003;62175;49.416;8.690;2023-05-10T11:58:14;1;1;
43280;PMS5003;62175;49.416;8.690;2023-05-10T12:15:20;1;1;
43280;PMS5003;62175;49.416;8.690;2023-05-10T12:17:50;2;2;
43280;PMS5003;62175;49.416;8.690;2023-05-10T12:31:00;2;2;
43280;PMS5003;62175;49.416;8.690;2023-05-10T12:33:35;2;2;
43280;PMS5003;62175;49.416;8.690;2023-05-10T12:36:03;4;4;
43280;PMS5003;62175;49.416;8.690;2023-05-10T12:38:33;3;3;
43280;PMS5003;62175;49.416;8.690;2023-05-10T12:41:02;1;1;
43280;PMS5003;62175;49.416;8.690;2023-05-10T12:43:31;3;2;
43280;PMS5003;62175;49.416;8.690;2023-05-10T12:46:04;3;3;
43280;PMS5003;62175;49.416;8.690;2023-05-10T12:48:34;1;1;
43280;PMS5003;62175;49.416;8.690;2023-05-10T12:51:02;3;3;
43280;PMS5003;62175;49.416;8.690;2023-05-10T12:53:31;1;1;
43280;PMS5003;62175;49.416;8.690;2023-05-10T12:56:00;2;2;
43280;PMS5003;62175;49.416;8.690;2023-05-10T12:58:28;2;2;
43280;PMS5003;62175;49.416;8.690;2023-05-10T13:00:57;3;3;
43280;PMS5003;62175;49.416;8.690;2023-05-10T13:03:25;2;2;
43280;PMS5003;62175;49.416;8.690;2023-05-10T13:05:55;3;3;
43280;PMS5003;62175;49.416;8.690;2023-05-10T13:08:24;1;0;
43280;PMS5003;62175;49.416;8.690;2023-05-10T13:10:52;2;1;
43280;PMS5003;62175;49.416;8.690;2023-05-10T13:13:20;2;2;
43280;PMS5003;62175;49.416;8.690;2023-05-10T13:15:47;1;1;
43280;PMS5003;62175;49.416;8.690;2023-05-10T13:18:14;2;2;
43280;PMS5003;62175;49.416;8.690;2023-05-10T13:20:41;1;1;
43280;PMS5003;62175;49.416;8.690;2023-05-10T13:23:08;2;2;
43280;PMS5003;62175;49.416;8.690;2023-05-10T13:25:34;0;0;
43280;PMS5003;62175;49.416;8.690;2023-05-10T13:28:02;2;2;
43280;PMS5003;62175;49.416;8.690;2023-05-10T13:30:28;2;2;
43280;PMS5003;62175;49.416;8.690;2023-05-10T13:32:55;1;1;
43280;PMS5003;62175;49.416;8.690;2023-05-10T13:35:23;2;2;
43280;PMS5003;62175;49.416;8.690;2023-05-10T13:37:50;3;3;
43280;PMS5003;62175;49.416;8.690;2023-05-10T13:40:17;1;1;
43280;PMS5003;62175;49.416;8.690;2023-05-10T13:42:45;2;2;
43280;PMS5003;62175;49.416;8.690;2023-05-10T13:45:12;2;2;
43280;PMS5003;62175;49.416;8.690;2023-05-10T13:47:39;0;0;
43280;PMS5003;62175;49.416;8.690;2023-05-10T13:50:17;2;1;
43280;PMS5003;62175;49.416;8.690;2023-05-10T13:52:49;1;1;
43280;PMS5003;62175;49.416;8.690;2023-05-10T13:55:16;0;0;
43280;PMS5003;62175;49.416;8.690;2023-05-10T13:57:44;1;1;
43280;PMS5003;62175;49.416;8.690;2023-05-10T14:00:12;2;2;
43280;PMS5003;62175;49.416;8.690;2023-05-10T14:02:39;1;1;
43280;PMS5003;62175;49.416;8.690;2023-05-10T14:05:06;2;2;
43280;PMS5003;62175;49.416;8.690;2023-05-10T14:07:34;2;2;
43280;PMS5003;62175;49.416;8.690;2023-05-10T14:10:01;1;1;
43280;PMS5003;62175;49.416;8.690;2023-05-10T14:12:28;1;1;
43280;PMS5003;62175;49.416;8.690;2023-05-10T14:14:55;2;1;
43280;PMS5003;62175;49.416;8.690;2023-05-10T14:17:22;2;1;
43280;PMS5003;62175;49.416;8.690;2023-05-10T15:35:34;1;1;
43280;PMS5003;62175;49.416;8.690;2023-05-10T15:38:03;3;2;
43280;PMS5003;62175;49.416;8.690;2023-05-10T15:40:30;0;0;
43280;PMS5003;62175;49.416;8.690;2023-05-10T15:42:57;1;1;
43280;PMS5003;62175;49.416;8.690;2023-05-10T15:45:26;1;1;
43280;PMS5003;62175;49.416;8.690;2023-05-10T15:47:55;2;2;
43280;PMS5003;62175;49.416;8.690;2023-05-10T15:52:21;1;1;
43280;PMS5003;62175;49.416;8.690;2023-05-10T15:54:57;1;1;
43280;PMS5003;62175;49.416;8.690;2023-05-10T15:57:35;2;2;
43280;PMS5003;62175;49.416;8.690;2023-05-10T16:18:07;1;1;
43280;PMS5003;62175;49.416;8.690;2023-05-10T16:21:13;1;1;
43280;PMS5003;62175;49.416;8.690;2023-05-10T18:44:38;1;1;
43280;PMS5003;62175;49.416;8.690;2023-05-10T22:54:38;2;2;
43280;PMS5003;62175;49.416;8.690;2023-05-10T22:56:40;3;3;
43280;PMS5003;62175;49.416;8.690;2023-05-10T22:59:09;2;2;
43280;PMS5003;62175;49.416;8.690;2023-05-10T23:01:38;2;2;
43280;PMS5003;62175;49.416;8.690;2023-05-10T23:04:07;3;2;
43280;PMS5003;62175;49.416;8.690;2023-05-10T23:06:40;2;2;
43280;PMS5003;62175;49.416;8.690;2023-05-10T23:10:58;2;2;
43280;PMS5003;62175;49.416;8.690;2023-05-10T23:14:39;3;2;
43280;PMS5003;62175;49.416;8.690;2023-05-10T23:18:11;4;4;
43280;PMS5003;62175;49.416;8.690;2023-05-10T23:20:36;4;4;
